sensor_id;sensor_type;location;lat;lon;timestamp;P1;durP1;ratioP1;P2;durP2;ratioP2
12151;SDS011;6139;51.274;7.128;2023-12-20T00:00:58;4.60;;;2.80;;
12151;SDS011;6139;51.274;7.128;2023-12-20T00:02:00;4.00;;;3.10;;
12151;SDS011;6139;51.274;7.128;2023-12-20T00:03:04;4.63;;;2.70;;
12151;SDS011;6139;51.274;7.128;2023-12-20T00:04:06;6.43;;;3.30;;
12151;SDS011;6139;51.274;7.128;2023-12-20T00:05:07;3.85;;;2.80;;
12151;SDS011;6139;51.274;7.128;2023-12-20T00:06:09;4.90;;;3.50;;
12151;SDS011;6139;51.274;7.128;2023-12-20T00:07:11;7.87;;;5.40;;
12151;SDS011;6139;51.274;7.128;2023-12-20T00:08:12;7.13;;;5.00;;
12151;SDS011;6139;51.274;7.128;2023-12-20T00:09:14;8.88;;;4.60;;
12151;SDS011;6139;51.274;7.128;2023-12-20T00:10:15;5.30;;;3.70;;
12151;SDS011;6139;51.274;7.128;2023-12-20T00:11:17;6.90;;;4.17;;
12151;SDS011;6139;51.274;7.128;2023-12-20T00:12:18;7.47;;;4.30;;
12151;SDS011;6139;51.274;7.128;2023-12-20T00:13:20;6.70;;;4.13;;
12151;SDS011;6139;51.274;7.128;2023-12-20T00:14:21;7.70;;;3.40;;
12151;SDS011;6139;51.274;7.128;2023-12-20T00:15:22;5.10;;;3.70;;
12151;SDS011;6139;51.274;7.128;2023-12-20T00:16:23;6.53;;;4.03;;
12151;SDS011;6139;51.274;7.128;2023-12-20T00:17:25;6.00;;;4.50;;
12151;SDS011;6139;51.274;7.128;2023-12-20T00:18:28;7.40;;;4.37;;
12151;SDS011;6139;51.274;7.128;2023-12-20T00:19:29;7.03;;;3.77;;
12151;SDS011;6139;51.274;7.128;2023-12-20T00:20:30;7.70;;;4.60;;
12151;SDS011;6139;51.274;7.128;2023-12-20T00:21:32;9.43;;;4.50;;
12151;SDS011;6139;51.274;7.128;2023-12-20T00:22:33;7.00;;;4.13;;
12151;SDS011;6139;51.274;7.128;2023-12-20T00:23:35;7.60;;;5.30;;
12151;SDS011;6139;51.274;7.128;2023-12-20T00:24:36;7.68;;;5.18;;
12151;SDS011;6139;51.274;7.128;2023-12-20T00:25:38;6.87;;;5.03;;
12151;SDS011;6139;51.274;7.128;2023-12-20T00:26:39;9.03;;;5.67;;
12151;SDS011;6139;51.274;7.128;2023-12-20T00:27:41;8.87;;;5.73;;
12151;SDS011;6139;51.274;7.128;2023-12-20T00:28:42;9.90;;;6.27;;
12151;SDS011;6139;51.274;7.128;2023-12-20T00:29:44;10.20;;;5.57;;
12151;SDS011;6139;51.274;7.128;2023-12-20T00:30:50;8.63;;;6.53;;
12151;SDS011;6139;51.274;7.128;2023-12-20T00:31:51;10.03;;;6.70;;
12151;SDS011;6139;51.274;7.128;2023-12-20T00:32:53;8.73;;;6.97;;
12151;SDS011;6139;51.274;7.128;2023-12-20T00:33:55;9.33;;;7.40;;
12151;SDS011;6139;51.274;7.128;2023-12-20T00:34:57;8.30;;;6.83;;
12151;SDS011;6139;51.274;7.128;2023-12-20T00:35:58;10.60;;;7.40;;
12151;SDS011;6139;51.274;7.128;2023-12-20T00:37:00;10.48;;;7.85;;
12151;SDS011;6139;51.274;7.128;2023-12-20T00:38:01;11.98;;;8.10;;
12151;SDS011;6139;51.274;7.128;2023-12-20T00:39:02;10.43;;;7.70;;
12151;SDS011;6139;51.274;7.128;2023-12-20T00:40:05;11.95;;;8.18;;
12151;SDS011;6139;51.274;7.128;2023-12-20T00:41:07;9.97;;;7.80;;
12151;SDS011;6139;51.274;7.128;2023-12-20T00:42:09;11.60;;;7.60;;
12151;SDS011;6139;51.274;7.128;2023-12-20T00:43:10;12.57;;;8.43;;
12151;SDS011;6139;51.274;7.128;2023-12-20T00:44:11;12.97;;;8.40;;
12151;SDS011;6139;51.274;7.128;2023-12-20T00:45:13;10.47;;;7.63;;
12151;SDS011;6139;51.274;7.128;2023-12-20T00:46:15;11.93;;;7.50;;
12151;SDS011;6139;51.274;7.128;2023-12-20T00:47:16;12.27;;;8.10;;
12151;SDS011;6139;51.274;7.128;2023-12-20T00:48:18;12.97;;;8.43;;
12151;SDS011;6139;51.274;7.128;2023-12-20T00:49:20;14.13;;;8.63;;
12151;SDS011;6139;51.274;7.128;2023-12-20T00:50:22;15.63;;;8.60;;
12151;SDS011;6139;51.274;7.128;2023-12-20T00:51:23;16.27;;;8.97;;
12151;SDS011;6139;51.274;7.128;2023-12-20T00:52:25;10.97;;;8.17;;
12151;SDS011;6139;51.274;7.128;2023-12-20T00:53:26;12.57;;;8.23;;
12151;SDS011;6139;51.274;7.128;2023-12-20T00:54:28;12.57;;;8.63;;
12151;SDS011;6139;51.274;7.128;2023-12-20T00:55:31;14.27;;;8.30;;
12151;SDS011;6139;51.274;7.128;2023-12-20T00:56:33;15.33;;;9.20;;
12151;SDS011;6139;51.274;7.128;2023-12-20T00:57:34;11.17;;;8.63;;
12151;SDS011;6139;51.274;7.128;2023-12-20T00:58:36;9.67;;;8.60;;
12151;SDS011;6139;51.274;7.128;2023-12-20T00:59:36;13.93;;;8.48;;
12151;SDS011;6139;51.274;7.128;2023-12-20T01:00:37;13.40;;;8.60;;
12151;SDS011;6139;51.274;7.128;2023-12-20T01:01:39;12.23;;;8.37;;
12151;SDS011;6139;51.274;7.128;2023-12-20T01:02:40;12.10;;;8.35;;
12151;SDS011;6139;51.274;7.128;2023-12-20T01:03:42;10.90;;;7.60;;
12151;SDS011;6139;51.274;7.128;2023-12-20T01:04:44;14.33;;;8.20;;
12151;SDS011;6139;51.274;7.128;2023-12-20T01:05:47;11.70;;;8.43;;
12151;SDS011;6139;51.274;7.128;2023-12-20T01:06:48;11.90;;;8.17;;
12151;SDS011;6139;51.274;7.128;2023-12-20T01:07:50;9.83;;;7.17;;
12151;SDS011;6139;51.274;7.128;2023-12-20T01:08:51;13.27;;;7.97;;
12151;SDS011;6139;51.274;7.128;2023-12-20T01:09:53;11.02;;;7.65;;
12151;SDS011;6139;51.274;7.128;2023-12-20T01:10:54;11.57;;;8.00;;
12151;SDS011;6139;51.274;7.128;2023-12-20T01:11:56;15.63;;;8.93;;
12151;SDS011;6139;51.274;7.128;2023-12-20T01:12:57;13.13;;;8.53;;
12151;SDS011;6139;51.274;7.128;2023-12-20T01:13:59;12.73;;;8.40;;
12151;SDS011;6139;51.274;7.128;2023-12-20T01:14:59;12.18;;;8.27;;
12151;SDS011;6139;51.274;7.128;2023-12-20T01:16:01;12.33;;;8.27;;
12151;SDS011;6139;51.274;7.128;2023-12-20T01:17:03;13.20;;;8.60;;
12151;SDS011;6139;51.274;7.128;2023-12-20T01:18:05;12.27;;;8.07;;
12151;SDS011;6139;51.274;7.128;2023-12-20T01:19:06;14.27;;;8.30;;
12151;SDS011;6139;51.274;7.128;2023-12-20T01:20:09;13.17;;;8.23;;
12151;SDS011;6139;51.274;7.128;2023-12-20T01:21:10;12.73;;;8.77;;
12151;SDS011;6139;51.274;7.128;2023-12-20T01:22:12;12.10;;;8.07;;
12151;SDS011;6139;51.274;7.128;2023-12-20T01:23:13;13.20;;;8.05;;
12151;SDS011;6139;51.274;7.128;2023-12-20T01:24:15;11.97;;;7.77;;
12151;SDS011;6139;51.274;7.128;2023-12-20T01:25:16;11.87;;;8.10;;
12151;SDS011;6139;51.274;7.128;2023-12-20T01:26:17;11.47;;;8.00;;
12151;SDS011;6139;51.274;7.128;2023-12-20T01:27:19;13.73;;;8.25;;
12151;SDS011;6139;51.274;7.128;2023-12-20T01:28:20;11.48;;;7.60;;
12151;SDS011;6139;51.274;7.128;2023-12-20T01:29:22;11.23;;;8.32;;
12151;SDS011;6139;51.274;7.128;2023-12-20T01:30:23;12.70;;;8.00;;
12151;SDS011;6139;51.274;7.128;2023-12-20T01:31:26;12.30;;;8.27;;
12151;SDS011;6139;51.274;7.128;2023-12-20T01:32:27;16.77;;;8.87;;
12151;SDS011;6139;51.274;7.128;2023-12-20T01:33:29;14.97;;;8.77;;
12151;SDS011;6139;51.274;7.128;2023-12-20T01:34:30;16.13;;;9.00;;
12151;SDS011;6139;51.274;7.128;2023-12-20T01:35:33;14.55;;;9.15;;
12151;SDS011;6139;51.274;7.128;2023-12-20T01:36:34;12.43;;;8.47;;
12151;SDS011;6139;51.274;7.128;2023-12-20T01:37:36;14.43;;;8.55;;
12151;SDS011;6139;51.274;7.128;2023-12-20T01:38:37;11.70;;;8.73;;
12151;SDS011;6139;51.274;7.128;2023-12-20T01:39:39;12.37;;;9.37;;
12151;SDS011;6139;51.274;7.128;2023-12-20T01:40:40;17.30;;;9.40;;
12151;SDS011;6139;51.274;7.128;2023-12-20T01:41:41;16.70;;;8.90;;
12151;SDS011;6139;51.274;7.128;2023-12-20T01:42:43;14.80;;;10.27;;
12151;SDS011;6139;51.274;7.128;2023-12-20T01:43:44;13.75;;;10.18;;
12151;SDS011;6139;51.274;7.128;2023-12-20T01:44:46;12.40;;;10.17;;
12151;SDS011;6139;51.274;7.128;2023-12-20T01:45:48;18.07;;;10.43;;
12151;SDS011;6139;51.274;7.128;2023-12-20T01:46:50;17.17;;;9.87;;
12151;SDS011;6139;51.274;7.128;2023-12-20T01:47:51;15.30;;;9.80;;
12151;SDS011;6139;51.274;7.128;2023-12-20T01:48:54;15.60;;;9.70;;
12151;SDS011;6139;51.274;7.128;2023-12-20T01:49:55;17.73;;;10.27;;
12151;SDS011;6139;51.274;7.128;2023-12-20T01:50:59;16.50;;;11.03;;
12151;SDS011;6139;51.274;7.128;2023-12-20T01:52:00;17.13;;;10.63;;
12151;SDS011;6139;51.274;7.128;2023-12-20T01:53:02;21.60;;;12.07;;
12151;SDS011;6139;51.274;7.128;2023-12-20T01:54:07;13.90;;;10.53;;
12151;SDS011;6139;51.274;7.128;2023-12-20T01:55:08;17.70;;;10.57;;
12151;SDS011;6139;51.274;7.128;2023-12-20T01:56:13;16.67;;;10.57;;
12151;SDS011;6139;51.274;7.128;2023-12-20T01:57:15;15.90;;;12.17;;
12151;SDS011;6139;51.274;7.128;2023-12-20T01:58:17;18.13;;;11.37;;
12151;SDS011;6139;51.274;7.128;2023-12-20T01:59:19;17.97;;;11.67;;
12151;SDS011;6139;51.274;7.128;2023-12-20T02:00:22;18.50;;;11.77;;
12151;SDS011;6139;51.274;7.128;2023-12-20T02:01:26;16.70;;;11.93;;
12151;SDS011;6139;51.274;7.128;2023-12-20T02:02:28;17.63;;;11.83;;
12151;SDS011;6139;51.274;7.128;2023-12-20T02:03:30;16.70;;;11.90;;
12151;SDS011;6139;51.274;7.128;2023-12-20T02:04:31;17.00;;;12.23;;
12151;SDS011;6139;51.274;7.128;2023-12-20T02:05:34;21.87;;;13.77;;
12151;SDS011;6139;51.274;7.128;2023-12-20T02:06:37;17.10;;;12.40;;
12151;SDS011;6139;51.274;7.128;2023-12-20T02:07:41;15.93;;;12.13;;
12151;SDS011;6139;51.274;7.128;2023-12-20T02:08:42;17.37;;;11.53;;
12151;SDS011;6139;51.274;7.128;2023-12-20T02:09:43;17.57;;;12.33;;
12151;SDS011;6139;51.274;7.128;2023-12-20T02:10:45;16.57;;;11.60;;
12151;SDS011;6139;51.274;7.128;2023-12-20T02:11:46;19.83;;;11.13;;
12151;SDS011;6139;51.274;7.128;2023-12-20T02:12:48;13.10;;;10.20;;
12151;SDS011;6139;51.274;7.128;2023-12-20T02:13:49;17.20;;;11.43;;
12151;SDS011;6139;51.274;7.128;2023-12-20T02:14:51;17.17;;;10.53;;
12151;SDS011;6139;51.274;7.128;2023-12-20T02:15:52;15.43;;;10.70;;
12151;SDS011;6139;51.274;7.128;2023-12-20T02:16:54;13.63;;;10.43;;
12151;SDS011;6139;51.274;7.128;2023-12-20T02:17:56;17.53;;;11.57;;
12151;SDS011;6139;51.274;7.128;2023-12-20T02:18:58;19.77;;;11.80;;
12151;SDS011;6139;51.274;7.128;2023-12-20T02:19:59;15.03;;;10.20;;
12151;SDS011;6139;51.274;7.128;2023-12-20T02:21:00;16.03;;;10.83;;
12151;SDS011;6139;51.274;7.128;2023-12-20T02:22:08;15.97;;;11.67;;
12151;SDS011;6139;51.274;7.128;2023-12-20T02:23:09;17.77;;;11.17;;
12151;SDS011;6139;51.274;7.128;2023-12-20T02:24:11;20.50;;;11.17;;
12151;SDS011;6139;51.274;7.128;2023-12-20T02:25:12;18.43;;;10.30;;
12151;SDS011;6139;51.274;7.128;2023-12-20T02:26:13;18.37;;;10.47;;
12151;SDS011;6139;51.274;7.128;2023-12-20T02:27:15;18.77;;;10.40;;
12151;SDS011;6139;51.274;7.128;2023-12-20T02:28:19;16.77;;;9.50;;
12151;SDS011;6139;51.274;7.128;2023-12-20T02:29:22;15.80;;;9.33;;
12151;SDS011;6139;51.274;7.128;2023-12-20T02:30:23;13.83;;;9.00;;
12151;SDS011;6139;51.274;7.128;2023-12-20T02:31:24;16.27;;;9.17;;
12151;SDS011;6139;51.274;7.128;2023-12-20T02:32:25;12.47;;;9.03;;
12151;SDS011;6139;51.274;7.128;2023-12-20T02:33:28;19.47;;;10.13;;
12151;SDS011;6139;51.274;7.128;2023-12-20T02:34:29;17.47;;;8.87;;
12151;SDS011;6139;51.274;7.128;2023-12-20T02:35:30;17.80;;;8.73;;
12151;SDS011;6139;51.274;7.128;2023-12-20T02:36:31;15.67;;;8.17;;
12151;SDS011;6139;51.274;7.128;2023-12-20T02:37:34;16.20;;;7.93;;
12151;SDS011;6139;51.274;7.128;2023-12-20T02:38:36;15.30;;;8.00;;
12151;SDS011;6139;51.274;7.128;2023-12-20T02:39:37;13.03;;;7.97;;
12151;SDS011;6139;51.274;7.128;2023-12-20T02:40:38;13.03;;;8.43;;
12151;SDS011;6139;51.274;7.128;2023-12-20T02:41:39;14.17;;;7.73;;
12151;SDS011;6139;51.274;7.128;2023-12-20T02:42:40;12.27;;;7.80;;
12151;SDS011;6139;51.274;7.128;2023-12-20T02:43:42;18.03;;;8.23;;
12151;SDS011;6139;51.274;7.128;2023-12-20T02:44:44;13.23;;;7.73;;
12151;SDS011;6139;51.274;7.128;2023-12-20T02:45:46;13.23;;;8.20;;
12151;SDS011;6139;51.274;7.128;2023-12-20T02:46:47;16.83;;;8.30;;
12151;SDS011;6139;51.274;7.128;2023-12-20T02:47:49;17.23;;;7.90;;
12151;SDS011;6139;51.274;7.128;2023-12-20T02:48:50;14.47;;;8.60;;
12151;SDS011;6139;51.274;7.128;2023-12-20T02:49:51;13.30;;;8.27;;
12151;SDS011;6139;51.274;7.128;2023-12-20T02:50:53;15.33;;;9.07;;
12151;SDS011;6139;51.274;7.128;2023-12-20T02:51:55;14.67;;;8.60;;
12151;SDS011;6139;51.274;7.128;2023-12-20T02:52:58;14.23;;;8.60;;
12151;SDS011;6139;51.274;7.128;2023-12-20T02:54:00;15.77;;;9.77;;
12151;SDS011;6139;51.274;7.128;2023-12-20T02:55:01;13.40;;;8.93;;
12151;SDS011;6139;51.274;7.128;2023-12-20T02:56:03;16.50;;;9.00;;
12151;SDS011;6139;51.274;7.128;2023-12-20T02:57:04;13.27;;;9.10;;
12151;SDS011;6139;51.274;7.128;2023-12-20T02:58:07;14.57;;;9.17;;
12151;SDS011;6139;51.274;7.128;2023-12-20T02:59:08;13.60;;;8.53;;
12151;SDS011;6139;51.274;7.128;2023-12-20T03:00:10;18.87;;;8.20;;
12151;SDS011;6139;51.274;7.128;2023-12-20T03:01:12;15.60;;;9.37;;
12151;SDS011;6139;51.274;7.128;2023-12-20T03:02:14;12.90;;;8.23;;
12151;SDS011;6139;51.274;7.128;2023-12-20T03:03:15;18.63;;;8.67;;
12151;SDS011;6139;51.274;7.128;2023-12-20T03:04:17;15.43;;;9.40;;
12151;SDS011;6139;51.274;7.128;2023-12-20T03:05:18;12.50;;;8.27;;
12151;SDS011;6139;51.274;7.128;2023-12-20T03:06:21;13.90;;;8.27;;
12151;SDS011;6139;51.274;7.128;2023-12-20T03:07:21;15.10;;;8.37;;
12151;SDS011;6139;51.274;7.128;2023-12-20T03:08:25;13.83;;;8.10;;
12151;SDS011;6139;51.274;7.128;2023-12-20T03:09:26;12.00;;;7.90;;
12151;SDS011;6139;51.274;7.128;2023-12-20T03:10:27;15.93;;;8.13;;
12151;SDS011;6139;51.274;7.128;2023-12-20T03:11:28;14.43;;;8.27;;
12151;SDS011;6139;51.274;7.128;2023-12-20T03:12:30;20.17;;;8.63;;
12151;SDS011;6139;51.274;7.128;2023-12-20T03:13:32;17.10;;;8.83;;
12151;SDS011;6139;51.274;7.128;2023-12-20T03:14:32;17.77;;;8.07;;
12151;SDS011;6139;51.274;7.128;2023-12-20T03:15:34;14.63;;;8.07;;
12151;SDS011;6139;51.274;7.128;2023-12-20T03:16:36;15.80;;;7.90;;
12151;SDS011;6139;51.274;7.128;2023-12-20T03:17:38;16.47;;;8.23;;
12151;SDS011;6139;51.274;7.128;2023-12-20T03:18:39;18.40;;;8.30;;
12151;SDS011;6139;51.274;7.128;2023-12-20T03:19:40;16.83;;;9.03;;
12151;SDS011;6139;51.274;7.128;2023-12-20T03:20:41;13.40;;;8.40;;
12151;SDS011;6139;51.274;7.128;2023-12-20T03:21:43;16.73;;;8.13;;
12151;SDS011;6139;51.274;7.128;2023-12-20T03:22:44;15.63;;;8.50;;
12151;SDS011;6139;51.274;7.128;2023-12-20T03:23:48;19.27;;;8.27;;
12151;SDS011;6139;51.274;7.128;2023-12-20T03:24:48;17.37;;;8.43;;
12151;SDS011;6139;51.274;7.128;2023-12-20T03:25:50;13.47;;;7.83;;
12151;SDS011;6139;51.274;7.128;2023-12-20T03:26:51;14.10;;;7.40;;
12151;SDS011;6139;51.274;7.128;2023-12-20T03:27:53;13.13;;;7.17;;
12151;SDS011;6139;51.274;7.128;2023-12-20T03:28:54;21.40;;;7.43;;
12151;SDS011;6139;51.274;7.128;2023-12-20T03:29:56;13.93;;;7.13;;
12151;SDS011;6139;51.274;7.128;2023-12-20T03:30:57;14.87;;;7.50;;
12151;SDS011;6139;51.274;7.128;2023-12-20T03:31:59;12.13;;;7.37;;
12151;SDS011;6139;51.274;7.128;2023-12-20T03:33:00;16.70;;;8.00;;
12151;SDS011;6139;51.274;7.128;2023-12-20T03:34:02;20.53;;;8.27;;
12151;SDS011;6139;51.274;7.128;2023-12-20T03:35:03;17.37;;;7.80;;
12151;SDS011;6139;51.274;7.128;2023-12-20T03:36:05;18.70;;;7.77;;
12151;SDS011;6139;51.274;7.128;2023-12-20T03:37:07;18.83;;;6.63;;
12151;SDS011;6139;51.274;7.128;2023-12-20T03:38:08;14.27;;;7.23;;
12151;SDS011;6139;51.274;7.128;2023-12-20T03:39:11;17.30;;;6.90;;
12151;SDS011;6139;51.274;7.128;2023-12-20T03:40:13;13.87;;;6.57;;
12151;SDS011;6139;51.274;7.128;2023-12-20T03:41:15;16.50;;;6.53;;
12151;SDS011;6139;51.274;7.128;2023-12-20T03:42:16;15.37;;;6.67;;
12151;SDS011;6139;51.274;7.128;2023-12-20T03:43:17;14.43;;;6.77;;
12151;SDS011;6139;51.274;7.128;2023-12-20T03:44:19;16.67;;;6.17;;
12151;SDS011;6139;51.274;7.128;2023-12-20T03:45:20;16.40;;;6.80;;
12151;SDS011;6139;51.274;7.128;2023-12-20T03:46:22;12.30;;;6.33;;
12151;SDS011;6139;51.274;7.128;2023-12-20T03:47:23;12.87;;;6.10;;
12151;SDS011;6139;51.274;7.128;2023-12-20T03:48:24;13.90;;;5.93;;
12151;SDS011;6139;51.274;7.128;2023-12-20T03:49:26;15.83;;;6.47;;
12151;SDS011;6139;51.274;7.128;2023-12-20T03:50:27;14.17;;;5.97;;
12151;SDS011;6139;51.274;7.128;2023-12-20T03:51:30;14.77;;;6.87;;
12151;SDS011;6139;51.274;7.128;2023-12-20T03:52:31;19.57;;;6.57;;
12151;SDS011;6139;51.274;7.128;2023-12-20T03:53:32;11.80;;;5.77;;
12151;SDS011;6139;51.274;7.128;2023-12-20T03:54:36;15.73;;;6.60;;
12151;SDS011;6139;51.274;7.128;2023-12-20T03:55:37;13.50;;;5.87;;
12151;SDS011;6139;51.274;7.128;2023-12-20T03:56:38;13.40;;;6.33;;
12151;SDS011;6139;51.274;7.128;2023-12-20T03:57:39;18.50;;;6.13;;
12151;SDS011;6139;51.274;7.128;2023-12-20T03:58:41;11.87;;;5.27;;
12151;SDS011;6139;51.274;7.128;2023-12-20T03:59:42;13.80;;;7.03;;
12151;SDS011;6139;51.274;7.128;2023-12-20T04:00:44;15.67;;;7.03;;
12151;SDS011;6139;51.274;7.128;2023-12-20T04:01:45;11.47;;;6.23;;
12151;SDS011;6139;51.274;7.128;2023-12-20T04:02:46;15.77;;;6.17;;
12151;SDS011;6139;51.274;7.128;2023-12-20T04:03:48;10.87;;;6.17;;
12151;SDS011;6139;51.274;7.128;2023-12-20T04:04:49;12.60;;;6.17;;
12151;SDS011;6139;51.274;7.128;2023-12-20T04:05:50;19.00;;;6.57;;
12151;SDS011;6139;51.274;7.128;2023-12-20T04:06:52;15.47;;;6.63;;
12151;SDS011;6139;51.274;7.128;2023-12-20T04:07:53;12.67;;;5.77;;
12151;SDS011;6139;51.274;7.128;2023-12-20T04:08:55;15.47;;;5.90;;
12151;SDS011;6139;51.274;7.128;2023-12-20T04:09:57;15.37;;;7.17;;
12151;SDS011;6139;51.274;7.128;2023-12-20T04:10:59;18.37;;;6.03;;
12151;SDS011;6139;51.274;7.128;2023-12-20T04:12:00;16.33;;;6.10;;
12151;SDS011;6139;51.274;7.128;2023-12-20T04:13:02;15.63;;;6.00;;
12151;SDS011;6139;51.274;7.128;2023-12-20T04:14:04;12.60;;;6.17;;
12151;SDS011;6139;51.274;7.128;2023-12-20T04:15:05;11.77;;;5.37;;
12151;SDS011;6139;51.274;7.128;2023-12-20T04:16:09;16.80;;;5.70;;
12151;SDS011;6139;51.274;7.128;2023-12-20T04:17:10;13.13;;;5.43;;
12151;SDS011;6139;51.274;7.128;2023-12-20T04:18:12;16.20;;;5.97;;
12151;SDS011;6139;51.274;7.128;2023-12-20T04:19:13;15.80;;;5.43;;
12151;SDS011;6139;51.274;7.128;2023-12-20T04:20:15;8.77;;;5.40;;
12151;SDS011;6139;51.274;7.128;2023-12-20T04:21:16;16.77;;;5.63;;
12151;SDS011;6139;51.274;7.128;2023-12-20T04:22:18;11.83;;;5.27;;
12151;SDS011;6139;51.274;7.128;2023-12-20T04:23:19;15.57;;;5.07;;
12151;SDS011;6139;51.274;7.128;2023-12-20T04:24:21;13.03;;;5.33;;
12151;SDS011;6139;51.274;7.128;2023-12-20T04:25:24;12.30;;;5.07;;
12151;SDS011;6139;51.274;7.128;2023-12-20T04:26:26;10.77;;;5.27;;
12151;SDS011;6139;51.274;7.128;2023-12-20T04:27:27;17.20;;;6.00;;
12151;SDS011;6139;51.274;7.128;2023-12-20T04:28:29;8.80;;;4.60;;
12151;SDS011;6139;51.274;7.128;2023-12-20T04:29:30;16.70;;;5.40;;
12151;SDS011;6139;51.274;7.128;2023-12-20T04:30:32;14.30;;;5.67;;
12151;SDS011;6139;51.274;7.128;2023-12-20T04:31:33;11.47;;;5.40;;
12151;SDS011;6139;51.274;7.128;2023-12-20T04:32:35;16.57;;;5.53;;
12151;SDS011;6139;51.274;7.128;2023-12-20T04:33:36;12.53;;;4.77;;
12151;SDS011;6139;51.274;7.128;2023-12-20T04:34:38;10.67;;;4.27;;
12151;SDS011;6139;51.274;7.128;2023-12-20T04:35:39;15.10;;;5.63;;
12151;SDS011;6139;51.274;7.128;2023-12-20T04:36:43;12.67;;;5.70;;
12151;SDS011;6139;51.274;7.128;2023-12-20T04:37:45;10.10;;;4.60;;
12151;SDS011;6139;51.274;7.128;2023-12-20T04:38:46;14.10;;;5.07;;
12151;SDS011;6139;51.274;7.128;2023-12-20T04:39:48;15.87;;;6.23;;
12151;SDS011;6139;51.274;7.128;2023-12-20T04:40:50;13.50;;;5.10;;
12151;SDS011;6139;51.274;7.128;2023-12-20T04:41:52;14.87;;;4.97;;
12151;SDS011;6139;51.274;7.128;2023-12-20T04:42:53;13.87;;;5.73;;
12151;SDS011;6139;51.274;7.128;2023-12-20T04:43:55;15.07;;;5.93;;
12151;SDS011;6139;51.274;7.128;2023-12-20T04:44:56;10.53;;;5.20;;
12151;SDS011;6139;51.274;7.128;2023-12-20T04:45:58;18.43;;;6.40;;
12151;SDS011;6139;51.274;7.128;2023-12-20T04:46:59;11.30;;;5.57;;
12151;SDS011;6139;51.274;7.128;2023-12-20T04:48:01;15.47;;;6.57;;
12151;SDS011;6139;51.274;7.128;2023-12-20T04:49:02;13.87;;;6.30;;
12151;SDS011;6139;51.274;7.128;2023-12-20T04:50:05;14.40;;;5.97;;
12151;SDS011;6139;51.274;7.128;2023-12-20T04:51:07;16.37;;;6.37;;
12151;SDS011;6139;51.274;7.128;2023-12-20T04:52:09;18.30;;;6.13;;
12151;SDS011;6139;51.274;7.128;2023-12-20T04:53:10;19.60;;;7.17;;
12151;SDS011;6139;51.274;7.128;2023-12-20T04:54:11;19.53;;;6.93;;
12151;SDS011;6139;51.274;7.128;2023-12-20T04:55:13;12.50;;;6.00;;
12151;SDS011;6139;51.274;7.128;2023-12-20T04:56:17;16.23;;;6.20;;
12151;SDS011;6139;51.274;7.128;2023-12-20T04:57:18;12.17;;;6.47;;
12151;SDS011;6139;51.274;7.128;2023-12-20T04:58:20;13.00;;;6.63;;
12151;SDS011;6139;51.274;7.128;2023-12-20T04:59:20;17.67;;;7.03;;
12151;SDS011;6139;51.274;7.128;2023-12-20T05:00:22;21.53;;;7.57;;
12151;SDS011;6139;51.274;7.128;2023-12-20T05:01:23;12.03;;;6.47;;
12151;SDS011;6139;51.274;7.128;2023-12-20T05:02:25;18.90;;;7.43;;
12151;SDS011;6139;51.274;7.128;2023-12-20T05:03:26;15.70;;;8.00;;
12151;SDS011;6139;51.274;7.128;2023-12-20T05:04:29;18.20;;;8.00;;
12151;SDS011;6139;51.274;7.128;2023-12-20T05:05:30;13.87;;;7.37;;
12151;SDS011;6139;51.274;7.128;2023-12-20T05:06:32;12.43;;;7.23;;
12151;SDS011;6139;51.274;7.128;2023-12-20T05:07:33;14.87;;;7.90;;
12151;SDS011;6139;51.274;7.128;2023-12-20T05:08:35;16.43;;;7.70;;
12151;SDS011;6139;51.274;7.128;2023-12-20T05:09:36;16.27;;;8.27;;
12151;SDS011;6139;51.274;7.128;2023-12-20T05:10:38;14.10;;;7.80;;
12151;SDS011;6139;51.274;7.128;2023-12-20T05:11:41;18.70;;;7.80;;
12151;SDS011;6139;51.274;7.128;2023-12-20T05:12:43;17.47;;;7.53;;
12151;SDS011;6139;51.274;7.128;2023-12-20T05:13:44;14.93;;;7.67;;
12151;SDS011;6139;51.274;7.128;2023-12-20T05:14:46;16.03;;;7.57;;
12151;SDS011;6139;51.274;7.128;2023-12-20T05:15:47;15.07;;;7.13;;
12151;SDS011;6139;51.274;7.128;2023-12-20T05:16:49;14.50;;;6.90;;
12151;SDS011;6139;51.274;7.128;2023-12-20T05:17:50;20.50;;;7.77;;
12151;SDS011;6139;51.274;7.128;2023-12-20T05:18:52;18.63;;;8.27;;
12151;SDS011;6139;51.274;7.128;2023-12-20T05:19:53;17.80;;;7.33;;
12151;SDS011;6139;51.274;7.128;2023-12-20T05:20:55;12.43;;;7.47;;
12151;SDS011;6139;51.274;7.128;2023-12-20T05:21:56;14.93;;;6.90;;
12151;SDS011;6139;51.274;7.128;2023-12-20T05:22:58;16.37;;;7.77;;
12151;SDS011;6139;51.274;7.128;2023-12-20T05:23:59;18.03;;;6.70;;
12151;SDS011;6139;51.274;7.128;2023-12-20T05:25:00;19.80;;;7.50;;
12151;SDS011;6139;51.274;7.128;2023-12-20T05:26:02;19.13;;;8.13;;
12151;SDS011;6139;51.274;7.128;2023-12-20T05:27:05;16.83;;;7.07;;
12151;SDS011;6139;51.274;7.128;2023-12-20T05:28:07;17.57;;;6.93;;
12151;SDS011;6139;51.274;7.128;2023-12-20T05:29:08;15.10;;;6.97;;
12151;SDS011;6139;51.274;7.128;2023-12-20T05:30:10;16.37;;;7.33;;
12151;SDS011;6139;51.274;7.128;2023-12-20T05:31:12;23.30;;;7.83;;
12151;SDS011;6139;51.274;7.128;2023-12-20T05:32:13;19.23;;;7.20;;
12151;SDS011;6139;51.274;7.128;2023-12-20T05:33:15;20.17;;;7.53;;
12151;SDS011;6139;51.274;7.128;2023-12-20T05:34:16;17.03;;;7.13;;
12151;SDS011;6139;51.274;7.128;2023-12-20T05:35:18;20.27;;;7.83;;
12151;SDS011;6139;51.274;7.128;2023-12-20T05:36:20;21.47;;;7.50;;
12151;SDS011;6139;51.274;7.128;2023-12-20T05:37:21;20.63;;;8.23;;
12151;SDS011;6139;51.274;7.128;2023-12-20T05:38:23;17.30;;;7.60;;
12151;SDS011;6139;51.274;7.128;2023-12-20T05:39:24;20.13;;;8.13;;
12151;SDS011;6139;51.274;7.128;2023-12-20T05:40:26;19.77;;;7.60;;
12151;SDS011;6139;51.274;7.128;2023-12-20T05:41:27;17.60;;;7.67;;
12151;SDS011;6139;51.274;7.128;2023-12-20T05:42:30;17.97;;;7.57;;
12151;SDS011;6139;51.274;7.128;2023-12-20T05:43:31;17.07;;;7.57;;
12151;SDS011;6139;51.274;7.128;2023-12-20T05:44:33;15.07;;;7.03;;
12151;SDS011;6139;51.274;7.128;2023-12-20T05:45:34;20.07;;;7.40;;
12151;SDS011;6139;51.274;7.128;2023-12-20T05:46:36;17.07;;;7.10;;
12151;SDS011;6139;51.274;7.128;2023-12-20T05:47:37;18.80;;;7.30;;
12151;SDS011;6139;51.274;7.128;2023-12-20T05:48:38;16.93;;;8.20;;
12151;SDS011;6139;51.274;7.128;2023-12-20T05:49:39;17.83;;;6.97;;
12151;SDS011;6139;51.274;7.128;2023-12-20T05:50:41;16.03;;;7.40;;
12151;SDS011;6139;51.274;7.128;2023-12-20T05:51:42;16.07;;;7.33;;
12151;SDS011;6139;51.274;7.128;2023-12-20T05:52:43;16.93;;;7.83;;
12151;SDS011;6139;51.274;7.128;2023-12-20T05:53:45;18.37;;;8.40;;
12151;SDS011;6139;51.274;7.128;2023-12-20T05:54:46;16.53;;;8.33;;
12151;SDS011;6139;51.274;7.128;2023-12-20T05:55:48;23.13;;;7.80;;
12151;SDS011;6139;51.274;7.128;2023-12-20T05:56:49;21.03;;;7.90;;
12151;SDS011;6139;51.274;7.128;2023-12-20T05:57:53;19.20;;;8.10;;
12151;SDS011;6139;51.274;7.128;2023-12-20T05:58:54;16.40;;;7.40;;
12151;SDS011;6139;51.274;7.128;2023-12-20T05:59:56;15.33;;;8.00;;
12151;SDS011;6139;51.274;7.128;2023-12-20T06:00:57;18.50;;;7.37;;
12151;SDS011;6139;51.274;7.128;2023-12-20T06:01:57;17.10;;;7.50;;
12151;SDS011;6139;51.274;7.128;2023-12-20T06:03:00;14.17;;;7.07;;
12151;SDS011;6139;51.274;7.128;2023-12-20T06:04:01;13.60;;;6.67;;
12151;SDS011;6139;51.274;7.128;2023-12-20T06:05:04;17.20;;;7.03;;
12151;SDS011;6139;51.274;7.128;2023-12-20T06:06:05;16.77;;;6.83;;
12151;SDS011;6139;51.274;7.128;2023-12-20T06:07:08;16.07;;;6.27;;
12151;SDS011;6139;51.274;7.128;2023-12-20T06:08:11;16.37;;;6.00;;
12151;SDS011;6139;51.274;7.128;2023-12-20T06:09:13;13.40;;;6.23;;
12151;SDS011;6139;51.274;7.128;2023-12-20T06:10:15;15.50;;;6.10;;
12151;SDS011;6139;51.274;7.128;2023-12-20T06:11:17;13.70;;;5.57;;
12151;SDS011;6139;51.274;7.128;2023-12-20T06:12:18;12.53;;;5.17;;